createdAt,value
2022-11-08T00:00:44.434Z,17.90
2022-11-08T00:03:12.470Z,17.55
2022-11-08T00:05:58.771Z,17.75
2022-11-08T00:08:45.495Z,18.33
2022-11-08T00:11:31.494Z,17.58
2022-11-08T00:13:59.742Z,17.38
2022-11-08T00:16:28.642Z,17.60
2022-11-08T00:18:56.349Z,18.38
2022-11-08T00:21:24.285Z,17.60
2022-11-08T00:23:52.035Z,16.55
2022-11-08T00:26:19.949Z,17.35
2022-11-08T00:28:47.672Z,17.88
2022-11-08T00:31:15.557Z,18.05
2022-11-08T00:33:43.248Z,16.75
2022-11-08T00:36:11.278Z,17.58
2022-11-08T00:38:42.895Z,17.20
2022-11-08T00:41:11.928Z,17.88
2022-11-08T00:43:39.792Z,17.30
2022-11-08T00:46:07.712Z,17.73
2022-11-08T00:48:35.364Z,17.00
2022-11-08T00:51:05.903Z,17.17
2022-11-08T00:53:36.318Z,17.85
2022-11-08T00:56:11.964Z,17.98
2022-11-08T00:58:41.607Z,17.70
2022-11-08T01:01:15.957Z,17.50
2022-11-08T01:03:44.165Z,18.50
2022-11-08T01:06:14.400Z,17.27
2022-11-08T01:08:42.831Z,17.25
2022-11-08T01:11:15.394Z,16.30
2022-11-08T01:13:43.580Z,17.05
2022-11-08T01:16:15.379Z,17.48
2022-11-08T01:18:44.119Z,16.90
2022-11-08T01:21:12.474Z,17.00
2022-11-08T01:23:40.647Z,17.40
2022-11-08T01:26:12.217Z,17.15
2022-11-08T01:28:39.998Z,17.08
2022-11-08T01:31:16.810Z,16.77
2022-11-08T01:33:50.838Z,17.25
2022-11-08T01:36:22.420Z,16.30
2022-11-08T01:38:50.639Z,17.17
2022-11-08T01:41:21.299Z,16.17
2022-11-08T01:43:58.921Z,17.70
2022-11-08T01:46:42.436Z,16.63
2022-11-08T01:49:19.056Z,16.73
2022-11-08T01:51:49.715Z,16.75
2022-11-08T01:54:25.403Z,17.20
2022-11-08T01:56:54.906Z,16.27
2022-11-08T01:59:22.747Z,17.25
2022-11-08T02:01:56.761Z,17.15
2022-11-08T02:04:24.561Z,16.95
2022-11-08T02:06:52.813Z,16.70
2022-11-08T02:09:20.440Z,16.60
2022-11-08T02:11:49.340Z,16.40
2022-11-08T02:14:18.094Z,16.73
2022-11-08T02:16:46.013Z,16.08
2022-11-08T02:19:25.312Z,17.05
2022-11-08T02:21:58.220Z,16.08
2022-11-08T02:24:25.957Z,16.55
2022-11-08T02:26:56.406Z,16.63
2022-11-08T02:29:27.323Z,16.27
2022-11-08T02:31:56.634Z,16.73
2022-11-08T02:34:29.741Z,16.40
2022-11-08T02:36:58.561Z,16.30
2022-11-08T02:39:26.268Z,15.75
2022-11-08T02:41:54.436Z,16.42
2022-11-08T02:44:22.039Z,16.58
2022-11-08T02:46:50.112Z,16.75
2022-11-08T02:49:17.829Z,16.77
2022-11-08T02:51:45.745Z,16.42
2022-11-08T02:57:23.110Z,17.02
2022-11-08T02:59:51.042Z,15.63
2022-11-08T03:02:18.709Z,17.13
2022-11-08T03:04:46.738Z,16.40
2022-11-08T03:07:14.311Z,16.92
2022-11-08T03:09:42.118Z,17.00
2022-11-08T03:12:09.762Z,17.08
2022-11-08T03:14:37.604Z,17.38
2022-11-08T03:17:05.289Z,16.42
2022-11-08T03:19:33.157Z,16.10
2022-11-08T03:22:01.665Z,16.75
2022-11-08T03:24:29.520Z,16.55
2022-11-08T03:26:57.120Z,17.13
2022-11-08T03:29:25.090Z,17.38
2022-11-08T03:31:52.740Z,17.30
2022-11-08T03:34:20.566Z,17.52
2022-11-08T03:36:48.680Z,16.75
2022-11-08T03:39:16.544Z,15.85
2022-11-08T03:41:44.725Z,17.52
2022-11-08T03:44:12.554Z,16.30
2022-11-08T03:46:40.157Z,16.65
2022-11-08T03:49:08.248Z,17.02
2022-11-08T03:51:35.826Z,16.73
2022-11-08T03:54:03.959Z,17.08
2022-11-08T03:56:31.711Z,17.52
2022-11-08T03:58:59.556Z,16.33
2022-11-08T04:01:27.137Z,17.02
2022-11-08T04:03:55.083Z,17.63
2022-11-08T04:06:22.780Z,16.70
2022-11-08T04:08:50.603Z,17.70
2022-11-08T04:11:36.732Z,17.30
2022-11-08T04:14:23.415Z,17.63
2022-11-08T04:16:51.058Z,15.93
2022-11-08T04:19:37.703Z,16.83
2022-11-08T04:22:06.448Z,17.30
2022-11-08T04:24:34.409Z,17.25
2022-11-08T04:27:02.767Z,17.60
2022-11-08T04:29:31.006Z,17.38
2022-11-08T04:31:58.625Z,17.65
2022-11-08T04:34:26.505Z,17.35
2022-11-08T04:36:55.459Z,17.25
2022-11-08T04:39:23.277Z,17.55
2022-11-08T04:41:51.027Z,17.63
2022-11-08T04:44:18.904Z,18.80
2022-11-08T04:46:46.476Z,17.60
2022-11-08T04:49:14.301Z,17.98
2022-11-08T04:51:41.820Z,18.23
2022-11-08T04:54:11.780Z,17.25
2022-11-08T04:56:41.648Z,18.52
2022-11-08T04:59:12.017Z,18.00
2022-11-08T05:01:40.227Z,17.00
2022-11-08T05:04:08.266Z,17.25
2022-11-08T05:06:35.835Z,17.50
2022-11-08T05:09:04.018Z,16.63
2022-11-08T05:11:31.998Z,17.58
2022-11-08T05:13:59.951Z,17.13
2022-11-08T05:16:30.144Z,16.83
2022-11-08T05:18:58.334Z,16.98
2022-11-08T05:21:45.608Z,17.67
2022-11-08T05:24:16.591Z,17.33
2022-11-08T05:26:47.114Z,16.90
2022-11-08T05:29:16.294Z,17.35
2022-11-08T05:31:44.424Z,17.40
2022-11-08T05:34:12.373Z,17.63
2022-11-08T05:36:39.884Z,17.08
2022-11-08T05:39:07.787Z,17.13
2022-11-08T05:41:35.470Z,17.80
2022-11-08T05:44:03.290Z,17.58
2022-11-08T05:46:30.859Z,17.30
2022-11-08T05:48:58.969Z,18.30
2022-11-08T05:51:26.588Z,18.95
2022-11-08T05:53:54.386Z,18.77
2022-11-08T05:56:22.226Z,18.95
2022-11-08T05:58:50.180Z,18.20
2022-11-08T06:01:19.709Z,18.88
2022-11-08T06:03:48.559Z,18.63
2022-11-08T06:06:21.861Z,19.48
2022-11-08T06:08:51.540Z,19.77
2022-11-08T06:11:24.246Z,19.95
2022-11-08T06:13:53.436Z,19.45
2022-11-08T06:16:23.571Z,19.80
2022-11-08T06:18:51.799Z,20.13
2022-11-08T06:21:21.362Z,19.85
2022-11-08T06:23:51.816Z,19.33
2022-11-08T06:26:19.437Z,19.83
2022-11-08T06:28:47.359Z,20.55
2022-11-08T06:31:14.856Z,20.55
2022-11-08T06:33:42.736Z,19.35
2022-11-08T06:36:10.399Z,19.55
2022-11-08T06:38:38.310Z,19.02
2022-11-08T06:41:05.914Z,18.30
2022-11-08T06:43:34.084Z,18.23
2022-11-08T06:46:04.365Z,19.00
2022-11-08T06:48:35.931Z,17.67
2022-11-08T06:51:04.151Z,17.10
2022-11-08T06:53:32.780Z,16.67
2022-11-08T06:56:01.723Z,15.55
2022-11-08T06:58:30.541Z,16.02
2022-11-08T07:00:58.801Z,15.70
2022-11-08T07:03:26.657Z,15.20
2022-11-08T07:05:54.672Z,15.82
2022-11-08T07:08:24.277Z,15.27
2022-11-08T07:10:52.206Z,14.77
2022-11-08T07:13:20.541Z,15.15
2022-11-08T07:15:48.816Z,14.23
2022-11-08T07:18:18.422Z,14.48
2022-11-08T07:20:46.202Z,14.82
2022-11-08T07:23:14.580Z,13.90
2022-11-08T07:25:42.324Z,15.27
2022-11-08T07:28:18.512Z,14.77
2022-11-08T07:30:47.384Z,14.63
2022-11-08T07:33:16.886Z,14.35
2022-11-08T07:35:47.140Z,13.98
2022-11-08T07:38:15.151Z,15.18
2022-11-08T07:40:42.997Z,14.80
2022-11-08T07:43:23.366Z,14.45
2022-11-08T07:45:59.792Z,14.43
2022-11-08T07:48:28.837Z,13.40
2022-11-08T07:50:56.457Z,13.98
2022-11-08T07:53:24.441Z,13.65
2022-11-08T07:55:52.319Z,13.73
2022-11-08T07:58:20.318Z,12.90
2022-11-08T08:00:49.952Z,12.70
2022-11-08T08:03:18.754Z,12.73
2022-11-08T08:05:57.930Z,12.18
2022-11-08T08:08:27.929Z,12.65
2022-11-08T08:10:59.940Z,12.30
2022-11-08T08:13:28.397Z,11.68
2022-11-08T08:16:00.323Z,12.35
2022-11-08T08:18:29.766Z,11.23
2022-11-08T08:20:57.817Z,10.45
2022-11-08T08:23:26.205Z,10.68
2022-11-08T08:25:53.963Z,10.32
2022-11-08T08:28:21.846Z,10.55
2022-11-08T08:30:49.478Z,10.77
2022-11-08T08:33:34.718Z,10.48
2022-11-08T08:36:02.694Z,9.57
2022-11-08T08:38:36.790Z,9.77
2022-11-08T08:41:07.692Z,9.43
2022-11-08T08:43:35.487Z,9.57
2022-11-08T08:46:04.815Z,9.07
2022-11-08T08:48:33.590Z,9.48
2022-11-08T08:51:01.236Z,9.85
2022-11-08T08:53:29.057Z,9.35
2022-11-08T08:55:56.740Z,9.35
2022-11-08T08:58:24.950Z,9.00
2022-11-08T09:03:40.293Z,9.43
2022-11-08T09:06:08.168Z,9.43
2022-11-08T09:08:36.392Z,8.63
2022-11-08T09:11:04.537Z,9.35
2022-11-08T09:13:32.760Z,8.20
2022-11-08T09:16:02.730Z,7.85
2022-11-08T09:18:31.216Z,8.77
2022-11-08T09:20:59.054Z,8.30
2022-11-08T09:23:27.247Z,8.23
2022-11-08T09:25:59.889Z,7.68
2022-11-08T09:28:31.426Z,7.75
2022-11-08T09:31:09.064Z,6.82
2022-11-08T09:33:39.178Z,7.82
2022-11-08T09:36:08.852Z,7.70
2022-11-08T09:38:36.726Z,7.78
2022-11-08T09:41:17.111Z,7.25
2022-11-08T09:43:56.470Z,7.30
2022-11-08T09:46:35.229Z,6.78
2022-11-08T09:49:06.332Z,7.13
2022-11-08T09:51:36.277Z,6.97
2022-11-08T09:54:08.644Z,6.93
2022-11-08T09:56:38.289Z,6.70
2022-11-08T09:59:28.050Z,6.82
2022-11-08T10:01:55.724Z,6.53
2022-11-08T10:04:29.918Z,6.68
2022-11-08T10:07:24.151Z,6.50
2022-11-08T10:10:22.801Z,6.30
2022-11-08T10:13:17.141Z,6.40
2022-11-08T10:18:27.779Z,10.65
2022-11-08T10:20:55.706Z,8.65
2022-11-08T10:23:46.574Z,13.02
2022-11-08T10:26:25.665Z,7.03
2022-11-08T10:29:06.753Z,7.13
2022-11-08T10:31:37.486Z,6.35
2022-11-08T10:34:17.760Z,5.82
2022-11-08T10:36:49.219Z,5.65
2022-11-08T10:39:25.632Z,6.18
2022-11-08T10:42:15.855Z,5.63
2022-11-08T10:44:44.110Z,9.70
2022-11-08T10:47:28.710Z,5.50
2022-11-08T10:50:02.476Z,5.40
2022-11-08T10:52:46.666Z,5.53
2022-11-08T10:55:24.943Z,5.47
2022-11-08T10:57:52.805Z,5.38
2022-11-08T11:00:23.408Z,4.72
2022-11-08T11:03:01.081Z,4.45
2022-11-08T11:05:40.781Z,4.22
2022-11-08T11:08:08.670Z,4.00
2022-11-08T11:10:44.637Z,5.32
2022-11-08T11:13:18.479Z,9.05
2022-11-08T11:16:04.183Z,3.85
2022-11-08T11:18:39.362Z,7.28
2022-11-08T11:21:23.045Z,4.78
2022-11-08T11:24:07.712Z,53.78
2022-11-08T11:26:45.690Z,6.18
2022-11-08T11:29:21.525Z,5.65
2022-11-08T11:31:51.568Z,4.40
2022-11-08T11:34:19.432Z,4.78
2022-11-08T11:37:12.696Z,6.05
2022-11-08T11:39:45.889Z,5.35
2022-11-08T11:42:46.691Z,4.30
2022-11-08T11:45:23.870Z,6.25
2022-11-08T11:47:57.713Z,4.35
2022-11-08T11:52:59.195Z,5.80
2022-11-08T11:55:47.076Z,4.60
2022-11-08T11:58:32.992Z,4.63
2022-11-08T12:01:39.917Z,7.70
2022-11-08T12:04:21.479Z,7.50
2022-11-08T12:06:52.376Z,8.88
2022-11-08T12:09:47.331Z,5.10
2022-11-08T12:12:33.409Z,5.18
2022-11-08T12:15:23.898Z,4.97
2022-11-08T12:18:03.726Z,5.75
2022-11-08T12:20:54.017Z,5.60
2022-11-08T12:23:34.014Z,5.90
2022-11-08T12:26:06.771Z,4.78
2022-11-08T12:28:46.048Z,5.18
2022-11-08T12:31:40.145Z,4.90
2022-11-08T12:34:35.503Z,5.30
2022-11-08T12:37:16.126Z,6.45
2022-11-08T12:39:55.762Z,5.68
2022-11-08T12:42:44.179Z,4.60
2022-11-08T12:45:43.032Z,4.80
2022-11-08T12:48:28.741Z,5.07
2022-11-08T12:51:02.109Z,4.90
2022-11-08T12:53:29.733Z,5.00
2022-11-08T12:55:58.869Z,5.45
2022-11-08T12:58:36.664Z,5.32
2022-11-08T13:01:15.322Z,4.75
2022-11-08T13:03:42.984Z,4.63
2022-11-08T13:06:24.258Z,5.10
2022-11-08T13:09:09.107Z,5.32
2022-11-08T13:11:52.715Z,5.72
2022-11-08T13:14:21.905Z,5.32
2022-11-08T13:17:08.570Z,5.03
2022-11-08T13:20:05.782Z,4.32
2022-11-08T13:22:40.598Z,4.72
2022-11-08T13:25:28.969Z,4.50
2022-11-08T13:27:57.117Z,5.13
2022-11-08T13:30:25.410Z,4.88
2022-11-08T13:32:59.300Z,4.97
2022-11-08T13:36:13.918Z,4.65
2022-11-08T13:38:58.919Z,4.40
2022-11-08T13:41:27.268Z,4.22
2022-11-08T13:43:56.250Z,5.10
2022-11-08T13:46:26.923Z,4.50
2022-11-08T13:49:06.014Z,4.35
2022-11-08T13:51:41.601Z,4.65
2022-11-08T13:54:26.233Z,4.85
2022-11-08T13:57:01.883Z,4.90
2022-11-08T13:59:32.512Z,4.82
2022-11-08T14:02:05.592Z,5.25
2022-11-08T14:04:40.862Z,5.47
2022-11-08T14:07:24.874Z,5.00
2022-11-08T14:10:17.765Z,4.50
2022-11-08T14:12:54.565Z,4.40
2022-11-08T14:15:39.574Z,4.30
2022-11-08T14:18:32.610Z,3.90
2022-11-08T14:21:00.357Z,4.10
2022-11-08T14:23:40.628Z,4.30
2022-11-08T14:26:18.146Z,4.15
2022-11-08T14:28:47.748Z,4.47
2022-11-08T14:31:34.930Z,4.05
2022-11-08T14:34:03.017Z,3.72
2022-11-08T14:36:31.970Z,4.68
2022-11-08T14:39:12.150Z,4.18
2022-11-08T14:41:44.835Z,4.65
2022-11-08T14:44:16.069Z,4.20
2022-11-08T14:46:43.724Z,4.57
2022-11-08T14:49:29.372Z,4.68
2022-11-08T14:52:14.187Z,4.95
2022-11-08T14:54:47.565Z,4.50
2022-11-08T14:57:31.837Z,4.55
2022-11-08T15:00:21.724Z,4.90
2022-11-08T15:03:03.228Z,4.88
2022-11-08T15:05:54.195Z,4.57
2022-11-08T15:08:52.917Z,5.20
2022-11-08T15:11:31.007Z,5.10
2022-11-08T15:14:05.681Z,5.40
2022-11-08T15:16:45.081Z,5.80
2022-11-08T15:19:31.452Z,6.13
2022-11-08T15:22:20.286Z,6.60
2022-11-08T15:24:47.925Z,6.65
2022-11-08T15:27:17.197Z,6.95
2022-11-08T15:30:08.815Z,6.35
2022-11-08T15:32:39.711Z,6.80
2022-11-08T15:35:15.643Z,6.82
2022-11-08T15:37:43.829Z,7.05
2022-11-08T15:40:31.860Z,7.00
2022-11-08T15:43:00.323Z,6.75
2022-11-08T15:45:32.459Z,6.90
2022-11-08T15:48:21.279Z,9.90
2022-11-08T15:50:49.963Z,8.75
2022-11-08T15:53:18.276Z,7.28
2022-11-08T15:56:02.046Z,7.55
2022-11-08T15:58:32.619Z,8.05
2022-11-08T16:01:03.042Z,8.68
2022-11-08T16:03:31.272Z,8.35
2022-11-08T16:05:58.978Z,8.60
2022-11-08T16:08:27.147Z,9.40
2022-11-08T16:10:59.949Z,8.95
2022-11-08T16:13:34.446Z,9.52
2022-11-08T16:16:04.100Z,11.60
2022-11-08T16:18:34.236Z,9.80
2022-11-08T16:21:02.175Z,11.15
2022-11-08T16:23:30.060Z,10.50
2022-11-08T16:26:00.861Z,12.55
2022-11-08T16:28:38.253Z,12.25
2022-11-08T16:31:20.443Z,12.65
2022-11-08T16:33:48.655Z,15.30
2022-11-08T16:36:24.469Z,18.30
2022-11-08T16:38:55.004Z,15.77
2022-11-08T16:41:23.999Z,15.55
2022-11-08T16:43:52.112Z,13.88
2022-11-08T16:46:21.503Z,13.35
2022-11-08T16:48:56.861Z,14.15
2022-11-08T16:51:28.232Z,15.38
2022-11-08T16:53:56.124Z,16.27
2022-11-08T16:56:24.096Z,13.88
2022-11-08T16:58:51.915Z,13.80
2022-11-08T17:01:23.288Z,14.93
2022-11-08T17:03:51.241Z,17.45
2022-11-08T17:06:19.132Z,16.15
2022-11-08T17:08:47.507Z,15.60
2022-11-08T17:11:19.563Z,19.83
2022-11-08T17:13:47.998Z,19.55
2022-11-08T17:16:16.217Z,17.80
2022-11-08T17:18:47.432Z,17.75
2022-11-08T17:21:43.011Z,17.00
2022-11-08T17:24:05.790Z,17.10
2022-11-08T17:26:33.398Z,17.35
2022-11-08T17:29:01.277Z,17.17
2022-11-08T17:31:28.868Z,16.38
2022-11-08T17:33:56.786Z,15.77
2022-11-08T17:36:24.411Z,16.27
2022-11-08T17:38:52.344Z,16.38
2022-11-08T17:41:19.962Z,16.38
2022-11-08T17:43:48.006Z,15.50
2022-11-08T17:46:15.774Z,14.45
2022-11-08T17:48:43.668Z,14.55
2022-11-08T17:51:13.097Z,14.52
2022-11-08T17:53:41.320Z,14.52
2022-11-08T17:56:12.376Z,14.63
2022-11-08T17:58:41.270Z,15.13
2022-11-08T18:01:09.556Z,14.77
2022-11-08T18:03:37.601Z,15.02
2022-11-08T18:06:11.290Z,15.45
2022-11-08T18:11:07.488Z,14.43
2022-11-08T18:13:35.912Z,14.73
2022-11-08T18:16:18.474Z,15.88
2022-11-08T18:18:47.210Z,15.45
2022-11-08T18:21:15.680Z,15.75
2022-11-08T18:23:46.396Z,15.90
2022-11-08T18:26:15.895Z,16.55
2022-11-08T18:28:44.997Z,16.20
2022-11-08T18:31:18.729Z,16.20
2022-11-08T18:36:17.980Z,16.25
2022-11-08T18:38:46.186Z,16.98
2022-11-08T18:41:22.446Z,16.65
2022-11-08T18:43:50.469Z,17.10
2022-11-08T18:46:21.436Z,17.08
2022-11-08T18:48:50.420Z,18.15
2022-11-08T18:51:20.251Z,17.58
2022-11-08T18:53:48.485Z,18.17
2022-11-08T18:56:16.445Z,18.15
2022-11-08T18:58:45.471Z,17.67
2022-11-08T19:01:13.533Z,17.90
2022-11-08T19:03:41.768Z,18.23
2022-11-08T19:06:09.928Z,18.80
2022-11-08T19:08:37.914Z,19.67
2022-11-08T19:11:09.502Z,17.60
2022-11-08T19:13:39.483Z,19.00
2022-11-08T19:16:14.696Z,19.55
2022-11-08T19:18:43.832Z,19.67
2022-11-08T19:21:17.729Z,19.50
2022-11-08T19:23:46.313Z,18.83
2022-11-08T19:26:22.213Z,19.20
2022-11-08T19:28:51.309Z,20.75
2022-11-08T19:31:21.495Z,19.42
2022-11-08T19:33:52.196Z,20.33
2022-11-08T19:36:22.189Z,20.08
2022-11-08T19:38:50.384Z,19.27
2022-11-08T19:41:20.580Z,19.95
2022-11-08T19:43:49.835Z,20.58
2022-11-08T19:46:23.925Z,20.58
2022-11-08T19:48:52.656Z,20.45
2022-11-08T19:51:22.822Z,21.17
2022-11-08T19:53:53.882Z,20.73
2022-11-08T19:56:29.229Z,21.63
2022-11-08T20:01:36.338Z,21.67
2022-11-08T20:04:06.688Z,22.17
2022-11-08T20:06:35.287Z,22.95
2022-11-08T20:09:04.375Z,21.50
2022-11-08T20:11:35.902Z,21.02
2022-11-08T20:14:05.284Z,21.88
2022-11-08T20:16:36.490Z,21.23
2022-11-08T20:19:10.766Z,22.63
2022-11-08T20:21:42.027Z,23.40
2022-11-08T20:24:11.581Z,23.02
2022-11-08T20:26:41.455Z,22.25
2022-11-08T20:29:09.800Z,22.73
2022-11-08T20:31:38.821Z,21.90
2022-11-08T20:34:10.198Z,22.55
2022-11-08T20:36:38.937Z,22.75
2022-11-08T20:39:08.115Z,22.02
2022-11-08T20:41:37.747Z,22.08
2022-11-08T20:44:06.785Z,23.20
2022-11-08T20:46:36.007Z,23.20
2022-11-08T20:49:05.164Z,22.35
2022-11-08T20:51:33.321Z,22.98
2022-11-08T20:54:02.025Z,22.50
2022-11-08T20:56:33.622Z,23.13
2022-11-08T20:59:01.782Z,22.98
2022-11-08T21:01:32.605Z,22.52
2022-11-08T21:04:01.154Z,24.10
2022-11-08T21:06:32.943Z,23.77
2022-11-08T21:11:51.787Z,23.13
2022-11-08T21:14:19.299Z,22.73
2022-11-08T21:17:15.130Z,22.60
2022-11-08T21:19:34.553Z,22.60
2022-11-08T21:22:17.027Z,23.42
2022-11-08T21:24:47.644Z,22.23
2022-11-08T21:27:16.373Z,24.13
2022-11-08T21:29:44.289Z,22.65
2022-11-08T21:32:11.897Z,22.58
2022-11-08T21:34:45.483Z,22.48
2022-11-08T21:37:13.963Z,22.70
2022-11-08T21:39:42.058Z,23.73
2022-11-08T21:42:09.689Z,23.95
2022-11-08T21:44:37.502Z,23.85
2022-11-08T21:47:05.046Z,23.60
2022-11-08T21:49:32.831Z,23.98
2022-11-08T21:52:00.407Z,24.45
2022-11-08T21:54:28.303Z,26.25
2022-11-08T21:56:55.739Z,24.83
2022-11-08T21:59:23.524Z,24.90
2022-11-08T22:01:51.003Z,25.70
2022-11-08T22:04:18.874Z,26.15
2022-11-08T22:06:47.794Z,25.50
2022-11-08T22:09:15.928Z,25.02
2022-11-08T22:11:43.605Z,25.13
2022-11-08T22:14:11.523Z,24.45
2022-11-08T22:16:39.176Z,25.23
2022-11-08T22:19:09.568Z,24.45
2022-11-08T22:21:41.344Z,25.20
2022-11-08T22:24:22.557Z,24.00
2022-11-08T22:26:51.948Z,24.35
2022-11-08T22:29:19.905Z,23.10
2022-11-08T22:31:47.965Z,23.60
2022-11-08T22:34:16.085Z,22.95
2022-11-08T22:36:45.580Z,22.48
2022-11-08T22:39:16.918Z,20.63
2022-11-08T22:41:46.134Z,22.95
2022-11-08T22:44:14.906Z,21.30
2022-11-08T22:46:43.396Z,21.40
2022-11-08T22:49:12.164Z,20.33
2022-11-08T22:51:40.607Z,21.42
2022-11-08T22:54:08.935Z,21.23
2022-11-08T22:56:36.594Z,21.13
2022-11-08T22:59:04.880Z,20.65
2022-11-08T23:01:32.741Z,21.00
2022-11-08T23:04:00.621Z,20.17
2022-11-08T23:06:28.467Z,20.92
2022-11-08T23:08:56.384Z,21.23
2022-11-08T23:11:42.540Z,22.27
2022-11-08T23:14:33.964Z,22.30
2022-11-08T23:17:03.349Z,22.27
2022-11-08T23:19:50.024Z,22.85
2022-11-08T23:22:36.551Z,23.60
2022-11-08T23:25:04.817Z,23.05
2022-11-08T23:27:50.960Z,22.20
2022-11-08T23:30:38.113Z,22.20
2022-11-08T23:33:06.920Z,23.55
2022-11-08T23:35:35.211Z,22.40
2022-11-08T23:38:02.954Z,22.92
2022-11-08T23:40:49.444Z,23.75
2022-11-08T23:43:38.092Z,23.20
2022-11-08T23:46:11.951Z,24.15
2022-11-08T23:48:40.778Z,24.67
2022-11-08T23:51:08.959Z,24.75
2022-11-08T23:53:37.442Z,24.42
2022-11-08T23:56:05.903Z,23.90
2022-11-08T23:58:33.987Z,23.88
